createdAt,value
2019-03-30T00:00:29.578Z,7.40
2019-03-30T00:02:59.092Z,7.40
2019-03-30T00:05:28.641Z,7.40
2019-03-30T00:07:58.466Z,7.40
2019-03-30T00:10:27.742Z,7.40
2019-03-30T00:12:57.103Z,7.30
2019-03-30T00:15:26.346Z,7.30
2019-03-30T00:17:57.575Z,7.30
2019-03-30T00:20:26.825Z,7.30
2019-03-30T00:22:56.102Z,7.30
2019-03-30T00:25:25.406Z,7.30
2019-03-30T00:27:54.604Z,7.30
2019-03-30T00:30:23.905Z,7.30
2019-03-30T00:32:53.078Z,7.20
2019-03-30T00:35:22.558Z,7.20
2019-03-30T00:37:52.710Z,7.20
2019-03-30T00:40:22.453Z,7.10
2019-03-30T00:42:52.054Z,7.00
2019-03-30T00:45:21.766Z,7.00
2019-03-30T00:47:51.954Z,7.00
2019-03-30T00:50:21.367Z,6.90
2019-03-30T00:52:51.609Z,6.90
2019-03-30T00:55:21.016Z,6.90
2019-03-30T00:57:50.212Z,6.90
2019-03-30T01:00:19.680Z,6.80
2019-03-30T01:02:49.210Z,6.80
2019-03-30T01:05:18.457Z,6.70
2019-03-30T01:07:48.301Z,6.70
2019-03-30T01:10:17.606Z,6.70
2019-03-30T01:12:47.151Z,6.70
2019-03-30T01:15:16.473Z,6.60
2019-03-30T01:17:46.032Z,6.60
2019-03-30T01:20:15.408Z,6.60
2019-03-30T01:22:44.751Z,6.50
2019-03-30T01:25:14.153Z,6.50
2019-03-30T01:27:43.377Z,6.50
2019-03-30T01:30:23.088Z,6.50
2019-03-30T01:32:44.424Z,6.50
2019-03-30T01:35:13.699Z,6.50
2019-03-30T01:37:43.356Z,6.50
2019-03-30T01:40:12.757Z,6.50
2019-03-30T01:42:42.209Z,6.50
2019-03-30T01:45:11.714Z,6.50
2019-03-30T01:47:41.424Z,6.40
2019-03-30T01:50:17.817Z,6.40
2019-03-30T01:52:43.183Z,6.40
2019-03-30T01:55:12.713Z,6.40
2019-03-30T01:57:42.016Z,6.30
2019-03-30T02:00:14.317Z,6.30
2019-03-30T02:02:43.666Z,6.30
2019-03-30T02:05:13.182Z,6.20
2019-03-30T02:07:43.036Z,6.20
2019-03-30T02:10:12.946Z,6.20
2019-03-30T02:12:42.222Z,6.10
2019-03-30T02:15:11.838Z,6.10
2019-03-30T02:17:41.279Z,6.10
2019-03-30T02:20:30.609Z,6.10
2019-03-30T02:22:53.449Z,6.10
2019-03-30T02:25:22.970Z,6.00
2019-03-30T02:27:52.586Z,6.00
2019-03-30T02:30:22.018Z,6.00
2019-03-30T02:32:51.302Z,5.90
2019-03-30T02:35:21.661Z,5.90
2019-03-30T02:37:50.886Z,5.90
2019-03-30T02:40:20.202Z,5.90
2019-03-30T02:42:49.442Z,5.80
2019-03-30T02:45:18.664Z,5.80
2019-03-30T02:47:47.951Z,5.80
2019-03-30T02:50:17.212Z,5.80
2019-03-30T02:52:46.691Z,5.80
2019-03-30T02:55:15.972Z,5.80
2019-03-30T02:57:46.085Z,5.80
2019-03-30T03:00:16.832Z,5.80
2019-03-30T03:02:46.046Z,5.70
2019-03-30T03:05:15.695Z,5.70
2019-03-30T03:07:45.031Z,5.70
2019-03-30T03:10:16.090Z,5.70
2019-03-30T03:12:45.373Z,5.70
2019-03-30T03:15:14.755Z,5.70
2019-03-30T03:17:44.265Z,5.70
2019-03-30T03:20:13.747Z,5.70
2019-03-30T03:22:43.530Z,5.70
2019-03-30T03:25:14.357Z,5.70
2019-03-30T03:27:44.416Z,5.70
2019-03-30T03:30:14.184Z,5.60
2019-03-30T03:32:43.392Z,5.60
2019-03-30T03:35:13.628Z,5.60
2019-03-30T03:37:46.119Z,5.60
2019-03-30T03:40:14.972Z,5.60
2019-03-30T03:42:44.427Z,5.50
2019-03-30T03:45:13.985Z,5.50
2019-03-30T03:47:43.582Z,5.50
2019-03-30T03:50:31.827Z,5.50
2019-03-30T03:53:01.091Z,5.50
2019-03-30T03:55:31.366Z,5.50
2019-03-30T03:58:01.759Z,5.50
2019-03-30T04:00:31.382Z,5.50
2019-03-30T04:03:03.217Z,5.50
2019-03-30T04:05:34.561Z,5.50
2019-03-30T04:08:08.943Z,5.50
2019-03-30T04:10:39.772Z,5.50
2019-03-30T04:13:11.088Z,5.40
2019-03-30T04:15:40.574Z,5.40
2019-03-30T04:18:10.171Z,5.40
2019-03-30T04:20:39.506Z,5.30
2019-03-30T04:23:08.773Z,5.30
2019-03-30T04:25:38.129Z,5.30
2019-03-30T04:28:08.214Z,5.30
2019-03-30T04:30:37.711Z,5.30
2019-03-30T04:33:06.923Z,5.40
2019-03-30T04:35:36.424Z,5.50
2019-03-30T04:38:06.288Z,5.50
2019-03-30T04:40:35.567Z,5.50
2019-03-30T04:43:04.801Z,5.60
2019-03-30T04:45:34.302Z,5.60
2019-03-30T04:48:03.861Z,5.60
2019-03-30T04:50:33.132Z,5.50
2019-03-30T04:53:02.487Z,5.50
2019-03-30T04:55:31.708Z,5.50
2019-03-30T04:58:00.963Z,5.50
2019-03-30T05:00:30.601Z,5.60
2019-03-30T05:03:00.209Z,5.70
2019-03-30T05:05:30.085Z,5.70
2019-03-30T05:07:59.855Z,5.70
2019-03-30T05:10:30.143Z,5.80
2019-03-30T05:12:59.439Z,5.90
2019-03-30T05:15:29.086Z,6.00
2019-03-30T05:17:58.349Z,6.10
2019-03-30T05:20:27.586Z,6.30
2019-03-30T05:22:57.102Z,6.50
2019-03-30T05:25:26.358Z,6.70
2019-03-30T05:27:55.586Z,7.00
2019-03-30T05:30:24.839Z,7.50
2019-03-30T05:33:05.055Z,7.90
2019-03-30T05:35:25.282Z,8.40
2019-03-30T05:37:55.280Z,8.80
2019-03-30T05:40:24.506Z,9.20
2019-03-30T05:42:53.749Z,9.50
2019-03-30T05:45:25.232Z,9.60
2019-03-30T05:47:54.460Z,9.60
2019-03-30T05:50:23.670Z,9.70
2019-03-30T05:53:12.898Z,10.00
2019-03-30T05:55:42.311Z,10.60
2019-03-30T05:58:11.774Z,11.00
2019-03-30T06:00:41.107Z,11.30
2019-03-30T06:03:10.394Z,12.20
2019-03-30T06:05:40.601Z,13.10
2019-03-30T06:08:10.108Z,14.00
2019-03-30T06:10:39.331Z,14.90
2019-03-30T06:13:08.573Z,15.40
2019-03-30T06:15:38.059Z,15.80
2019-03-30T06:18:07.306Z,16.90
2019-03-30T06:20:36.497Z,17.00
2019-03-30T06:23:06.022Z,17.70
2019-03-30T06:25:35.315Z,18.30
2019-03-30T06:28:04.968Z,18.60
2019-03-30T06:30:34.413Z,19.00
2019-03-30T06:33:03.883Z,19.30
2019-03-30T06:35:33.116Z,19.70
2019-03-30T06:38:02.699Z,20.00
2019-03-30T06:40:32.150Z,20.30
2019-03-30T06:43:01.367Z,20.50
2019-03-30T06:45:31.189Z,20.90
2019-03-30T06:48:00.508Z,21.10
2019-03-30T06:50:29.742Z,21.50
2019-03-30T06:52:59.264Z,21.90
2019-03-30T06:55:30.809Z,22.10
2019-03-30T06:58:01.478Z,22.50
2019-03-30T07:00:34.859Z,22.50
2019-03-30T07:03:06.039Z,22.60
2019-03-30T07:05:42.253Z,22.70
2019-03-30T07:08:16.029Z,22.40
2019-03-30T07:10:46.350Z,22.60
2019-03-30T07:13:15.979Z,22.90
2019-03-30T07:15:47.409Z,23.20
2019-03-30T07:18:17.148Z,23.30
2019-03-30T07:20:47.218Z,23.70
2019-03-30T07:23:16.985Z,24.20
2019-03-30T07:25:46.204Z,24.30
2019-03-30T07:28:15.550Z,24.60
2019-03-30T07:30:44.876Z,24.90
2019-03-30T07:33:14.847Z,25.10
2019-03-30T07:35:44.865Z,25.20
2019-03-30T07:38:14.857Z,25.20
2019-03-30T07:40:44.132Z,25.50
2019-03-30T07:43:13.681Z,25.90
2019-03-30T07:45:43.159Z,26.20
2019-03-30T07:48:12.706Z,26.50
2019-03-30T07:50:41.984Z,26.60
2019-03-30T07:53:25.267Z,27.00
2019-03-30T07:55:44.017Z,27.20
2019-03-30T07:58:13.882Z,27.50
2019-03-30T08:00:43.411Z,27.60
2019-03-30T08:03:12.867Z,27.80
2019-03-30T08:05:42.468Z,28.30
2019-03-30T08:08:12.015Z,28.20
2019-03-30T08:10:41.555Z,28.70
2019-03-30T08:13:11.389Z,29.20
2019-03-30T08:15:40.622Z,29.30
2019-03-30T08:18:13.127Z,29.10
2019-03-30T08:20:42.405Z,29.00
2019-03-30T08:23:11.673Z,28.80
2019-03-30T08:25:41.162Z,28.60
2019-03-30T08:28:10.429Z,28.40
2019-03-30T08:30:39.716Z,28.30
2019-03-30T08:33:08.957Z,28.20
2019-03-30T08:35:38.216Z,28.20
2019-03-30T08:38:07.433Z,28.30
2019-03-30T08:40:36.715Z,28.50
2019-03-30T08:43:06.538Z,28.70
2019-03-30T08:45:35.997Z,28.70
2019-03-30T08:48:05.668Z,28.90
2019-03-30T08:50:35.789Z,29.10
2019-03-30T08:53:12.130Z,29.50
2019-03-30T08:55:43.181Z,29.60
2019-03-30T08:58:12.421Z,29.70
2019-03-30T09:00:42.797Z,29.50
2019-03-30T09:03:12.155Z,29.70
2019-03-30T09:05:41.791Z,30.00
2019-03-30T09:08:11.175Z,30.10
2019-03-30T09:10:41.155Z,30.50
2019-03-30T09:13:11.372Z,30.70
2019-03-30T09:15:40.693Z,30.80
2019-03-30T09:18:10.010Z,30.70
2019-03-30T09:20:39.302Z,30.50
2019-03-30T09:23:08.655Z,30.10
2019-03-30T09:25:37.950Z,29.00
2019-03-30T09:28:07.403Z,28.70
2019-03-30T09:30:36.758Z,28.40
2019-03-30T09:33:06.370Z,28.40
2019-03-30T09:35:35.955Z,28.60
2019-03-30T09:38:24.609Z,28.90
2019-03-30T09:41:24.151Z,29.20
2019-03-30T09:43:59.185Z,29.80
2019-03-30T09:46:28.711Z,30.10
2019-03-30T09:48:57.970Z,30.60
2019-03-30T09:51:27.252Z,30.60
2019-03-30T09:53:56.854Z,30.80
2019-03-30T09:56:27.634Z,30.10
2019-03-30T09:58:56.937Z,30.20
2019-03-30T10:01:26.249Z,29.40
2019-03-30T10:03:55.597Z,28.30
2019-03-30T10:06:33.787Z,27.70
2019-03-30T10:08:55.808Z,27.60
2019-03-30T10:11:25.295Z,27.80
2019-03-30T10:13:55.050Z,27.60
2019-03-30T10:16:27.681Z,27.00
2019-03-30T10:18:57.823Z,26.50
2019-03-30T10:21:27.657Z,26.10
2019-03-30T10:23:57.766Z,25.90
2019-03-30T10:26:27.404Z,25.20
2019-03-30T10:28:57.040Z,24.00
2019-03-30T10:31:26.317Z,23.00
2019-03-30T10:33:55.981Z,22.50
2019-03-30T10:36:25.811Z,21.90
2019-03-30T10:38:55.300Z,21.60
2019-03-30T10:41:25.289Z,21.40
2019-03-30T10:43:54.896Z,21.30
2019-03-30T10:46:24.678Z,21.10
2019-03-30T10:48:54.043Z,21.00
2019-03-30T10:51:23.365Z,20.60
2019-03-30T10:53:52.897Z,20.50
2019-03-30T10:56:22.310Z,20.40
2019-03-30T10:58:52.457Z,20.20
2019-03-30T11:01:21.708Z,20.00
2019-03-30T11:03:51.058Z,20.00
2019-03-30T11:06:20.568Z,19.90
2019-03-30T11:08:49.928Z,19.70
2019-03-30T11:11:19.211Z,19.80
2019-03-30T11:13:48.570Z,19.80
2019-03-30T11:16:17.825Z,19.70
2019-03-30T11:18:48.287Z,19.60
2019-03-30T11:21:17.970Z,19.60
2019-03-30T11:23:47.301Z,19.60
2019-03-30T11:26:16.530Z,19.50
2019-03-30T11:28:46.171Z,19.20
2019-03-30T11:31:16.390Z,19.30
2019-03-30T11:33:45.643Z,19.40
2019-03-30T11:36:18.607Z,19.40
2019-03-30T11:38:47.444Z,19.40
2019-03-30T11:41:16.744Z,19.30
2019-03-30T11:43:46.070Z,19.30
2019-03-30T11:46:15.304Z,19.30
2019-03-30T11:48:44.542Z,19.30
2019-03-30T11:51:13.802Z,19.20
2019-03-30T11:53:43.065Z,19.10
2019-03-30T11:56:12.475Z,19.10
2019-03-30T11:58:42.020Z,19.20
2019-03-30T12:01:11.600Z,19.10
2019-03-30T12:03:41.023Z,19.10
2019-03-30T12:06:10.345Z,19.00
2019-03-30T12:08:41.274Z,18.90
2019-03-30T12:11:10.528Z,19.00
2019-03-30T12:13:39.946Z,19.10
2019-03-30T12:16:09.298Z,19.20
2019-03-30T12:18:38.885Z,19.30
2019-03-30T12:21:08.378Z,19.40
2019-03-30T12:23:37.722Z,19.30
2019-03-30T12:26:06.964Z,19.20
2019-03-30T12:28:36.313Z,19.30
2019-03-30T12:31:05.879Z,19.40
2019-03-30T12:33:35.200Z,19.40
2019-03-30T12:36:04.711Z,19.40
2019-03-30T12:38:33.934Z,19.30
2019-03-30T12:41:03.534Z,19.40
2019-03-30T12:43:32.871Z,19.40
2019-03-30T12:46:02.186Z,19.40
2019-03-30T12:48:31.676Z,19.40
2019-03-30T12:51:01.471Z,19.40
2019-03-30T12:53:31.505Z,19.40
2019-03-30T12:56:01.720Z,19.40
2019-03-30T12:58:33.509Z,19.40
2019-03-30T13:01:02.827Z,19.40
2019-03-30T13:03:32.315Z,19.40
2019-03-30T13:06:01.756Z,19.40
2019-03-30T13:08:31.167Z,19.40
2019-03-30T13:11:00.705Z,19.40
2019-03-30T13:13:30.663Z,19.40
2019-03-30T13:16:00.495Z,19.30
2019-03-30T13:18:29.845Z,19.20
2019-03-30T13:20:59.630Z,19.20
2019-03-30T13:23:29.789Z,19.30
2019-03-30T13:26:03.737Z,19.30
2019-03-30T13:28:30.392Z,19.20
2019-03-30T13:30:59.681Z,19.30
2019-03-30T13:33:28.907Z,19.40
2019-03-30T13:35:58.369Z,19.40
2019-03-30T13:38:27.600Z,19.40
2019-03-30T13:40:57.335Z,19.40
2019-03-30T13:43:26.604Z,19.40
2019-03-30T13:45:56.100Z,19.30
2019-03-30T13:48:25.290Z,19.20
2019-03-30T13:50:54.820Z,19.30
2019-03-30T13:53:24.116Z,19.20
2019-03-30T13:55:54.367Z,19.20
2019-03-30T13:58:24.393Z,19.20
2019-03-30T14:00:54.073Z,19.20
2019-03-30T14:03:23.364Z,19.10
2019-03-30T14:05:52.851Z,19.10
2019-03-30T14:08:22.429Z,19.00
2019-03-30T14:10:52.120Z,19.10
2019-03-30T14:13:21.473Z,19.20
2019-03-30T14:15:50.925Z,19.20
2019-03-30T14:18:20.410Z,19.10
2019-03-30T14:20:49.672Z,19.00
2019-03-30T14:23:19.143Z,19.00
2019-03-30T14:25:48.535Z,19.00
2019-03-30T14:28:18.347Z,19.00
2019-03-30T14:30:47.689Z,19.00
2019-03-30T14:33:17.119Z,19.00
2019-03-30T14:35:46.882Z,19.00
2019-03-30T14:38:16.135Z,19.00
2019-03-30T14:40:45.506Z,19.00
2019-03-30T14:43:14.799Z,19.00
2019-03-30T14:45:44.246Z,19.00
2019-03-30T14:48:15.181Z,19.00
2019-03-30T14:50:44.491Z,18.90
2019-03-30T14:53:14.125Z,18.80
2019-03-30T14:55:43.701Z,18.80
2019-03-30T14:58:13.318Z,18.70
2019-03-30T15:00:42.749Z,18.80
2019-03-30T15:03:12.143Z,18.80
2019-03-30T15:05:41.486Z,18.80
2019-03-30T15:08:10.766Z,18.70
2019-03-30T15:10:40.205Z,18.70
2019-03-30T15:13:09.529Z,18.70
2019-03-30T15:15:38.856Z,18.70
2019-03-30T15:18:08.211Z,18.70
2019-03-30T15:20:40.696Z,18.70
2019-03-30T15:23:09.917Z,18.60
2019-03-30T15:25:39.368Z,18.60
2019-03-30T15:28:09.860Z,18.60
2019-03-30T15:30:39.161Z,18.60
2019-03-30T15:33:08.675Z,18.60
2019-03-30T15:35:38.013Z,18.50
2019-03-30T15:38:07.508Z,18.60
2019-03-30T15:40:36.710Z,18.60
2019-03-30T15:43:05.974Z,18.50
2019-03-30T15:45:35.201Z,18.40
2019-03-30T15:48:04.826Z,18.40
2019-03-30T15:50:34.107Z,18.30
2019-03-30T15:53:03.360Z,18.30
2019-03-30T15:55:32.803Z,18.30
2019-03-30T15:58:02.149Z,18.30
2019-03-30T16:00:32.679Z,18.30
2019-03-30T16:03:01.978Z,18.20
2019-03-30T16:05:31.869Z,18.20
2019-03-30T16:08:03.867Z,18.10
2019-03-30T16:10:32.376Z,18.10
2019-03-30T16:13:01.852Z,18.10
2019-03-30T16:15:31.363Z,18.00
2019-03-30T16:18:00.643Z,18.00
2019-03-30T16:20:30.134Z,18.00
2019-03-30T16:22:59.571Z,17.90
2019-03-30T16:25:28.867Z,17.90
2019-03-30T16:27:58.323Z,17.80
2019-03-30T16:30:29.238Z,17.80
2019-03-30T16:32:59.055Z,17.80
2019-03-30T16:35:28.338Z,17.80
2019-03-30T16:37:57.758Z,17.70
2019-03-30T16:40:27.777Z,17.60
2019-03-30T16:42:57.350Z,17.50
2019-03-30T16:45:26.586Z,17.50
2019-03-30T16:47:55.845Z,17.40
2019-03-30T16:50:25.153Z,17.40
2019-03-30T16:52:54.661Z,17.40
2019-03-30T16:55:26.492Z,17.30
2019-03-30T16:57:55.883Z,17.20
2019-03-30T17:00:27.287Z,17.00
2019-03-30T17:02:56.682Z,17.00
2019-03-30T17:05:25.947Z,16.90
2019-03-30T17:07:55.272Z,16.90
2019-03-30T17:10:24.586Z,16.80
2019-03-30T17:12:54.122Z,16.70
2019-03-30T17:15:23.626Z,16.70
2019-03-30T17:17:52.912Z,16.60
2019-03-30T17:20:22.254Z,16.50
2019-03-30T17:22:53.333Z,16.40
2019-03-30T17:25:22.685Z,16.30
2019-03-30T17:27:58.436Z,16.30
2019-03-30T17:30:23.407Z,16.20
2019-03-30T17:32:53.334Z,16.10
2019-03-30T17:35:24.398Z,16.10
2019-03-30T17:37:53.759Z,16.00
2019-03-30T17:40:23.140Z,15.90
2019-03-30T17:42:52.711Z,15.90
2019-03-30T17:45:22.035Z,15.80
2019-03-30T17:47:51.310Z,15.70
2019-03-30T17:50:21.117Z,15.60
2019-03-30T17:52:50.397Z,15.60
2019-03-30T17:55:33.100Z,15.50
2019-03-30T17:57:50.738Z,15.50
2019-03-30T18:00:20.771Z,15.40
2019-03-30T18:02:50.108Z,15.40
2019-03-30T18:05:19.434Z,15.40
2019-03-30T18:07:48.679Z,15.30
2019-03-30T18:10:18.496Z,15.20
2019-03-30T18:12:47.827Z,15.20
2019-03-30T18:15:17.070Z,15.10
2019-03-30T18:17:46.863Z,15.10
2019-03-30T18:20:16.529Z,15.10
2019-03-30T18:22:45.922Z,15.00
2019-03-30T18:25:15.594Z,15.00
2019-03-30T18:27:44.924Z,14.90
2019-03-30T18:30:14.930Z,14.90
2019-03-30T18:32:46.909Z,14.80
2019-03-30T18:35:23.316Z,14.70
2019-03-30T18:37:53.517Z,14.70
2019-03-30T18:40:30.202Z,14.60
2019-03-30T18:43:00.048Z,14.50
2019-03-30T18:45:29.836Z,14.50
2019-03-30T18:48:11.574Z,14.40
2019-03-30T18:50:41.555Z,14.40
2019-03-30T18:53:10.917Z,14.30
2019-03-30T18:55:41.233Z,14.30
2019-03-30T18:58:10.793Z,14.20
2019-03-30T19:00:41.121Z,14.20
2019-03-30T19:03:10.744Z,14.20
2019-03-30T19:05:40.006Z,14.20
2019-03-30T19:08:09.319Z,14.10
2019-03-30T19:10:38.663Z,14.10
2019-03-30T19:13:07.991Z,14.00
2019-03-30T19:15:37.264Z,14.00
2019-03-30T19:18:06.605Z,13.90
2019-03-30T19:20:35.853Z,13.90
2019-03-30T19:23:05.375Z,13.80
2019-03-30T19:25:35.435Z,13.70
2019-03-30T19:28:07.830Z,13.60
2019-03-30T19:30:37.414Z,13.60
2019-03-30T19:33:06.770Z,13.60
2019-03-30T19:35:36.136Z,13.60
2019-03-30T19:38:10.792Z,13.60
2019-03-30T19:40:39.027Z,13.60
2019-03-30T19:43:08.272Z,13.50
2019-03-30T19:45:37.526Z,13.50
2019-03-30T19:48:06.957Z,13.40
2019-03-30T19:50:36.527Z,13.40
2019-03-30T19:53:05.934Z,13.40
2019-03-30T19:55:36.001Z,13.30
2019-03-30T19:58:06.739Z,13.40
2019-03-30T20:00:38.989Z,13.30
2019-03-30T20:03:08.532Z,13.30
2019-03-30T20:05:37.860Z,13.30
2019-03-30T20:08:12.259Z,13.30
2019-03-30T20:10:38.974Z,13.20
2019-03-30T20:13:09.340Z,13.20
2019-03-30T20:15:38.756Z,13.20
2019-03-30T20:18:08.343Z,13.20
2019-03-30T20:20:37.847Z,13.10
2019-03-30T20:23:07.183Z,13.10
2019-03-30T20:25:36.857Z,13.10
2019-03-30T20:28:06.103Z,13.10
2019-03-30T20:30:35.342Z,13.10
2019-03-30T20:33:04.806Z,13.10
2019-03-30T20:35:34.216Z,13.10
2019-03-30T20:38:03.821Z,13.10
2019-03-30T20:40:33.517Z,13.20
2019-03-30T20:43:02.777Z,13.30
2019-03-30T20:45:32.257Z,13.30
2019-03-30T20:48:01.532Z,13.30
2019-03-30T20:50:31.020Z,13.30
2019-03-30T20:53:00.235Z,13.30
2019-03-30T20:55:30.095Z,13.10
2019-03-30T20:57:59.358Z,13.10
2019-03-30T21:00:28.649Z,13.00
2019-03-30T21:02:58.164Z,13.10
2019-03-30T21:05:27.924Z,13.10
2019-03-30T21:07:57.455Z,13.10
2019-03-30T21:10:27.216Z,13.10
2019-03-30T21:12:57.509Z,13.10
2019-03-30T21:15:27.648Z,13.10
2019-03-30T21:17:57.304Z,13.10
2019-03-30T21:20:26.811Z,13.10
2019-03-30T21:22:56.026Z,13.10
2019-03-30T21:25:25.325Z,13.10
2019-03-30T21:27:54.568Z,13.20
2019-03-30T21:30:23.986Z,13.20
2019-03-30T21:32:53.394Z,13.20
2019-03-30T21:35:22.661Z,13.20
2019-03-30T21:37:51.955Z,13.20
2019-03-30T21:40:21.247Z,13.20
2019-03-30T21:42:51.534Z,13.10
2019-03-30T21:45:20.794Z,13.00
2019-03-30T21:47:50.084Z,12.90
2019-03-30T21:50:19.326Z,12.80
2019-03-30T21:52:48.845Z,12.80
2019-03-30T21:55:18.113Z,12.80
2019-03-30T21:57:47.357Z,12.70
2019-03-30T22:00:30.313Z,12.60
2019-03-30T22:03:00.502Z,12.60
2019-03-30T22:05:30.520Z,12.60
2019-03-30T22:08:00.384Z,12.60
2019-03-30T22:10:29.685Z,12.60
2019-03-30T22:12:58.915Z,12.70
2019-03-30T22:15:28.892Z,12.80
2019-03-30T22:17:58.323Z,12.80
2019-03-30T22:20:28.077Z,12.90
2019-03-30T22:22:57.613Z,12.90
2019-03-30T22:25:26.854Z,12.90
2019-03-30T22:27:56.067Z,12.80
2019-03-30T22:30:25.563Z,12.70
2019-03-30T22:32:54.822Z,12.60
2019-03-30T22:35:24.271Z,12.50
2019-03-30T22:37:53.929Z,12.40
2019-03-30T22:40:23.145Z,12.30
2019-03-30T22:42:52.380Z,12.20
2019-03-30T22:45:22.348Z,12.20
2019-03-30T22:47:51.600Z,12.00
2019-03-30T22:50:20.823Z,11.90
2019-03-30T22:52:50.447Z,11.90
2019-03-30T22:55:19.693Z,11.80
2019-03-30T22:57:48.930Z,11.70
2019-03-30T23:00:38.999Z,11.70
2019-03-30T23:03:08.690Z,11.70
2019-03-30T23:05:39.874Z,11.60
2019-03-30T23:08:09.235Z,11.60
2019-03-30T23:10:38.616Z,11.50
2019-03-30T23:13:07.839Z,11.50
2019-03-30T23:15:37.265Z,11.40
2019-03-30T23:18:06.742Z,11.40
2019-03-30T23:20:36.016Z,11.40
2019-03-30T23:23:05.512Z,11.30
2019-03-30T23:25:34.766Z,11.30
2019-03-30T23:28:04.005Z,11.30
2019-03-30T23:30:33.298Z,11.20
2019-03-30T23:33:05.907Z,11.20
2019-03-30T23:35:35.174Z,11.10
2019-03-30T23:38:04.572Z,11.10
2019-03-30T23:40:34.038Z,11.00
2019-03-30T23:43:03.270Z,10.90
2019-03-30T23:45:32.939Z,10.90
2019-03-30T23:48:03.184Z,10.80
2019-03-30T23:50:32.517Z,10.80
2019-03-30T23:53:01.848Z,10.70
2019-03-30T23:55:31.166Z,10.70
2019-03-30T23:58:00.408Z,10.70
